sensor_id;sensor_type;location;lat;lon;timestamp;P1;durP1;ratioP1;P2;durP2;ratioP2
64601;SDS011;68371;42.630;23.192;2023-09-07T00:03:25;7.97;;;5.57;;
64601;SDS011;68371;42.630;23.192;2023-09-07T00:06:07;9.45;;;5.75;;
64601;SDS011;68371;42.630;23.192;2023-09-07T00:08:55;15.23;;;5.65;;
64601;SDS011;68371;42.630;23.192;2023-09-07T00:11:44;9.63;;;6.30;;
64601;SDS011;68371;42.630;23.192;2023-09-07T00:18:07;8.68;;;5.90;;
64601;SDS011;68371;42.630;23.192;2023-09-07T00:27:45;8.85;;;6.35;;
64601;SDS011;68371;42.630;23.192;2023-09-07T00:30:13;8.70;;;6.75;;
64601;SDS011;68371;42.630;23.192;2023-09-07T00:35:36;13.00;;;6.88;;
64601;SDS011;68371;42.630;23.192;2023-09-07T00:38:22;9.90;;;7.65;;
64601;SDS011;68371;42.630;23.192;2023-09-07T00:41:08;10.05;;;8.00;;
64601;SDS011;68371;42.630;23.192;2023-09-07T00:47:15;11.05;;;8.10;;
64601;SDS011;68371;42.630;23.192;2023-09-07T00:50:00;12.75;;;8.38;;
64601;SDS011;68371;42.630;23.192;2023-09-07T00:53:06;12.80;;;8.35;;
64601;SDS011;68371;42.630;23.192;2023-09-07T00:55:52;11.30;;;8.73;;
64601;SDS011;68371;42.630;23.192;2023-09-07T00:58:39;13.07;;;8.73;;
64601;SDS011;68371;42.630;23.192;2023-09-07T01:01:38;11.70;;;9.23;;
64601;SDS011;68371;42.630;23.192;2023-09-07T01:56:00;14.30;;;9.20;;
64601;SDS011;68371;42.630;23.192;2023-09-07T01:58:51;11.23;;;9.52;;
64601;SDS011;68371;42.630;23.192;2023-09-07T02:01:34;14.68;;;9.05;;
64601;SDS011;68371;42.630;23.192;2023-09-07T02:23:58;13.15;;;9.30;;
64601;SDS011;68371;42.630;23.192;2023-09-07T02:26:59;12.45;;;8.98;;
64601;SDS011;68371;42.630;23.192;2023-09-07T02:30:03;13.55;;;9.27;;
64601;SDS011;68371;42.630;23.192;2023-09-07T02:36:43;12.27;;;8.82;;
64601;SDS011;68371;42.630;23.192;2023-09-07T03:31:38;19.42;;;12.55;;
64601;SDS011;68371;42.630;23.192;2023-09-07T03:34:19;17.42;;;12.02;;
64601;SDS011;68371;42.630;23.192;2023-09-07T03:36:48;16.27;;;11.48;;
64601;SDS011;68371;42.630;23.192;2023-09-07T03:39:30;19.20;;;12.55;;
64601;SDS011;68371;42.630;23.192;2023-09-07T03:42:12;20.85;;;12.40;;
64601;SDS011;68371;42.630;23.192;2023-09-07T03:44:56;18.85;;;12.73;;
64601;SDS011;68371;42.630;23.192;2023-09-07T03:47:37;18.80;;;13.00;;
64601;SDS011;68371;42.630;23.192;2023-09-07T03:50:06;19.80;;;13.52;;
64601;SDS011;68371;42.630;23.192;2023-09-07T03:52:36;16.70;;;12.60;;
64601;SDS011;68371;42.630;23.192;2023-09-07T03:55:03;23.23;;;12.35;;
64601;SDS011;68371;42.630;23.192;2023-09-07T03:57:33;21.92;;;13.43;;
64601;SDS011;68371;42.630;23.192;2023-09-07T04:00:01;21.83;;;14.18;;
64601;SDS011;68371;42.630;23.192;2023-09-07T04:02:32;23.77;;;14.27;;
64601;SDS011;68371;42.630;23.192;2023-09-07T04:04:59;18.80;;;14.98;;
64601;SDS011;68371;42.630;23.192;2023-09-07T04:07:26;22.42;;;14.73;;
64601;SDS011;68371;42.630;23.192;2023-09-07T04:09:53;19.88;;;14.57;;
64601;SDS011;68371;42.630;23.192;2023-09-07T04:12:22;19.40;;;14.57;;
64601;SDS011;68371;42.630;23.192;2023-09-07T04:15:09;21.40;;;14.27;;
64601;SDS011;68371;42.630;23.192;2023-09-07T04:17:49;21.27;;;14.50;;
64601;SDS011;68371;42.630;23.192;2023-09-07T04:20:24;21.90;;;14.30;;
64601;SDS011;68371;42.630;23.192;2023-09-07T04:23:02;17.90;;;13.70;;
64601;SDS011;68371;42.630;23.192;2023-09-07T04:25:30;24.05;;;14.95;;
64601;SDS011;68371;42.630;23.192;2023-09-07T04:27:58;18.63;;;14.13;;
64601;SDS011;68371;42.630;23.192;2023-09-07T04:33:30;20.08;;;13.50;;
64601;SDS011;68371;42.630;23.192;2023-09-07T04:36:21;18.77;;;13.40;;
64601;SDS011;68371;42.630;23.192;2023-09-07T04:39:02;19.90;;;13.02;;
64601;SDS011;68371;42.630;23.192;2023-09-07T04:41:48;15.52;;;12.20;;
64601;SDS011;68371;42.630;23.192;2023-09-07T04:44:29;19.23;;;12.25;;
64601;SDS011;68371;42.630;23.192;2023-09-07T04:49:58;18.60;;;11.90;;
64601;SDS011;68371;42.630;23.192;2023-09-07T04:52:40;12.65;;;9.68;;
64601;SDS011;68371;42.630;23.192;2023-09-07T04:55:22;13.68;;;9.40;;
64601;SDS011;68371;42.630;23.192;2023-09-07T04:58:04;13.82;;;9.00;;
64601;SDS011;68371;42.630;23.192;2023-09-07T05:00:46;16.85;;;8.80;;
64601;SDS011;68371;42.630;23.192;2023-09-07T05:09:26;14.63;;;9.73;;
64601;SDS011;68371;42.630;23.192;2023-09-07T05:12:09;12.52;;;8.90;;
64601;SDS011;68371;42.630;23.192;2023-09-07T05:14:53;12.50;;;9.38;;
64601;SDS011;68371;42.630;23.192;2023-09-07T05:17:34;14.98;;;9.30;;
64601;SDS011;68371;42.630;23.192;2023-09-07T05:20:19;15.00;;;10.13;;
64601;SDS011;68371;42.630;23.192;2023-09-07T05:25:56;14.45;;;7.88;;
64601;SDS011;68371;42.630;23.192;2023-09-07T05:29:14;12.02;;;8.40;;
64601;SDS011;68371;42.630;23.192;2023-09-07T05:31:58;16.80;;;8.30;;
64601;SDS011;68371;42.630;23.192;2023-09-07T05:34:40;15.65;;;8.10;;
64601;SDS011;68371;42.630;23.192;2023-09-07T05:37:20;16.80;;;7.90;;
64601;SDS011;68371;42.630;23.192;2023-09-07T05:42:56;11.32;;;7.25;;
64601;SDS011;68371;42.630;23.192;2023-09-07T05:45:22;13.70;;;8.23;;
64601;SDS011;68371;42.630;23.192;2023-09-07T05:47:49;12.38;;;8.45;;
64601;SDS011;68371;42.630;23.192;2023-09-07T05:50:16;19.05;;;8.30;;
64601;SDS011;68371;42.630;23.192;2023-09-07T05:52:42;13.95;;;8.30;;
64601;SDS011;68371;42.630;23.192;2023-09-07T05:55:09;11.48;;;7.55;;
64601;SDS011;68371;42.630;23.192;2023-09-07T05:57:36;14.70;;;7.38;;
64601;SDS011;68371;42.630;23.192;2023-09-07T06:00:05;11.20;;;7.15;;
64601;SDS011;68371;42.630;23.192;2023-09-07T06:02:33;12.40;;;8.23;;
64601;SDS011;68371;42.630;23.192;2023-09-07T06:05:01;14.20;;;8.20;;
64601;SDS011;68371;42.630;23.192;2023-09-07T06:07:28;15.70;;;8.77;;
64601;SDS011;68371;42.630;23.192;2023-09-07T06:09:54;12.57;;;8.38;;
64601;SDS011;68371;42.630;23.192;2023-09-07T06:12:23;12.57;;;8.32;;
64601;SDS011;68371;42.630;23.192;2023-09-07T06:14:50;15.52;;;9.40;;
64601;SDS011;68371;42.630;23.192;2023-09-07T06:17:18;13.02;;;9.52;;
64601;SDS011;68371;42.630;23.192;2023-09-07T06:19:45;16.98;;;9.00;;
64601;SDS011;68371;42.630;23.192;2023-09-07T06:22:12;16.63;;;7.90;;
64601;SDS011;68371;42.630;23.192;2023-09-07T06:24:39;12.00;;;7.90;;
64601;SDS011;68371;42.630;23.192;2023-09-07T06:27:06;16.08;;;8.73;;
64601;SDS011;68371;42.630;23.192;2023-09-07T06:29:33;11.30;;;7.90;;
64601;SDS011;68371;42.630;23.192;2023-09-07T06:32:00;11.85;;;8.05;;
64601;SDS011;68371;42.630;23.192;2023-09-07T06:34:28;14.15;;;7.43;;
64601;SDS011;68371;42.630;23.192;2023-09-07T06:36:54;11.15;;;7.45;;
64601;SDS011;68371;42.630;23.192;2023-09-07T06:39:21;12.32;;;7.50;;
64601;SDS011;68371;42.630;23.192;2023-09-07T06:41:48;13.57;;;7.35;;
64601;SDS011;68371;42.630;23.192;2023-09-07T06:44:15;13.20;;;7.18;;
64601;SDS011;68371;42.630;23.192;2023-09-07T06:46:41;11.90;;;6.35;;
64601;SDS011;68371;42.630;23.192;2023-09-07T06:49:08;12.75;;;7.30;;
64601;SDS011;68371;42.630;23.192;2023-09-07T06:51:36;16.88;;;7.05;;
64601;SDS011;68371;42.630;23.192;2023-09-07T06:54:04;11.98;;;6.50;;
64601;SDS011;68371;42.630;23.192;2023-09-07T06:56:30;8.75;;;6.43;;
64601;SDS011;68371;42.630;23.192;2023-09-07T06:58:59;13.10;;;6.60;;
64601;SDS011;68371;42.630;23.192;2023-09-07T07:01:26;7.80;;;5.95;;
64601;SDS011;68371;42.630;23.192;2023-09-07T07:03:53;9.50;;;6.22;;
64601;SDS011;68371;42.630;23.192;2023-09-07T07:06:19;12.02;;;6.07;;
64601;SDS011;68371;42.630;23.192;2023-09-07T07:08:47;9.82;;;6.07;;
64601;SDS011;68371;42.630;23.192;2023-09-07T07:11:14;8.77;;;5.75;;
64601;SDS011;68371;42.630;23.192;2023-09-07T07:13:41;11.85;;;6.30;;
64601;SDS011;68371;42.630;23.192;2023-09-07T07:16:07;9.20;;;5.82;;
64601;SDS011;68371;42.630;23.192;2023-09-07T07:18:35;15.30;;;5.75;;
64601;SDS011;68371;42.630;23.192;2023-09-07T07:21:02;10.52;;;6.20;;
64601;SDS011;68371;42.630;23.192;2023-09-07T07:23:28;13.23;;;6.10;;
64601;SDS011;68371;42.630;23.192;2023-09-07T07:25:57;9.25;;;5.65;;
64601;SDS011;68371;42.630;23.192;2023-09-07T07:28:24;13.73;;;5.40;;
64601;SDS011;68371;42.630;23.192;2023-09-07T07:30:50;8.98;;;5.28;;
64601;SDS011;68371;42.630;23.192;2023-09-07T07:33:18;9.75;;;6.55;;
64601;SDS011;68371;42.630;23.192;2023-09-07T07:35:45;11.60;;;5.88;;
64601;SDS011;68371;42.630;23.192;2023-09-07T07:38:12;8.65;;;5.20;;
64601;SDS011;68371;42.630;23.192;2023-09-07T07:40:41;7.97;;;5.53;;
64601;SDS011;68371;42.630;23.192;2023-09-07T07:43:09;8.38;;;4.80;;
64601;SDS011;68371;42.630;23.192;2023-09-07T07:45:38;14.45;;;5.53;;
64601;SDS011;68371;42.630;23.192;2023-09-07T07:48:05;8.40;;;5.07;;
64601;SDS011;68371;42.630;23.192;2023-09-07T07:50:35;9.43;;;4.72;;
64601;SDS011;68371;42.630;23.192;2023-09-07T07:53:03;8.75;;;5.30;;
64601;SDS011;68371;42.630;23.192;2023-09-07T07:55:29;7.97;;;5.43;;
64601;SDS011;68371;42.630;23.192;2023-09-07T07:57:56;8.77;;;5.80;;
64601;SDS011;68371;42.630;23.192;2023-09-07T08:00:24;11.18;;;5.80;;
64601;SDS011;68371;42.630;23.192;2023-09-07T08:02:51;7.78;;;5.82;;
64601;SDS011;68371;42.630;23.192;2023-09-07T08:05:18;9.10;;;5.32;;
64601;SDS011;68371;42.630;23.192;2023-09-07T08:07:44;11.02;;;5.70;;
64601;SDS011;68371;42.630;23.192;2023-09-07T08:10:11;13.75;;;5.90;;
64601;SDS011;68371;42.630;23.192;2023-09-07T08:12:38;7.43;;;6.00;;
64601;SDS011;68371;42.630;23.192;2023-09-07T08:15:05;11.73;;;6.43;;
64601;SDS011;68371;42.630;23.192;2023-09-07T08:17:33;9.00;;;5.90;;
64601;SDS011;68371;42.630;23.192;2023-09-07T08:20:00;6.88;;;5.50;;
64601;SDS011;68371;42.630;23.192;2023-09-07T08:22:28;10.13;;;5.90;;
64601;SDS011;68371;42.630;23.192;2023-09-07T08:24:54;11.25;;;5.93;;
64601;SDS011;68371;42.630;23.192;2023-09-07T08:27:22;9.13;;;6.35;;
64601;SDS011;68371;42.630;23.192;2023-09-07T08:29:48;10.40;;;6.25;;
64601;SDS011;68371;42.630;23.192;2023-09-07T08:32:16;11.10;;;6.40;;
64601;SDS011;68371;42.630;23.192;2023-09-07T08:34:45;8.43;;;6.50;;
64601;SDS011;68371;42.630;23.192;2023-09-07T08:37:12;12.82;;;6.18;;
64601;SDS011;68371;42.630;23.192;2023-09-07T08:39:40;10.00;;;6.30;;
64601;SDS011;68371;42.630;23.192;2023-09-07T08:42:06;7.65;;;6.03;;
64601;SDS011;68371;42.630;23.192;2023-09-07T08:44:34;10.75;;;5.75;;
64601;SDS011;68371;42.630;23.192;2023-09-07T08:47:03;9.02;;;5.22;;
64601;SDS011;68371;42.630;23.192;2023-09-07T08:49:31;16.15;;;5.57;;
64601;SDS011;68371;42.630;23.192;2023-09-07T08:52:01;9.15;;;6.13;;
64601;SDS011;68371;42.630;23.192;2023-09-07T08:54:29;13.63;;;5.45;;
64601;SDS011;68371;42.630;23.192;2023-09-07T08:56:57;7.50;;;5.57;;
64601;SDS011;68371;42.630;23.192;2023-09-07T08:59:29;10.50;;;5.88;;
64601;SDS011;68371;42.630;23.192;2023-09-07T09:01:56;10.43;;;5.47;;
64601;SDS011;68371;42.630;23.192;2023-09-07T09:04:23;9.20;;;5.93;;
64601;SDS011;68371;42.630;23.192;2023-09-07T09:06:50;9.10;;;5.78;;
64601;SDS011;68371;42.630;23.192;2023-09-07T09:09:22;11.45;;;5.57;;
64601;SDS011;68371;42.630;23.192;2023-09-07T09:11:50;12.55;;;5.40;;
64601;SDS011;68371;42.630;23.192;2023-09-07T09:14:17;13.18;;;5.53;;
64601;SDS011;68371;42.630;23.192;2023-09-07T09:16:48;8.57;;;5.00;;
64601;SDS011;68371;42.630;23.192;2023-09-07T09:19:15;12.27;;;5.15;;
64601;SDS011;68371;42.630;23.192;2023-09-07T09:21:44;7.75;;;5.00;;
64601;SDS011;68371;42.630;23.192;2023-09-07T09:24:12;9.52;;;5.60;;
64601;SDS011;68371;42.630;23.192;2023-09-07T09:26:41;14.57;;;5.30;;
64601;SDS011;68371;42.630;23.192;2023-09-07T09:29:08;7.30;;;4.78;;
64601;SDS011;68371;42.630;23.192;2023-09-07T09:31:36;10.30;;;5.05;;
64601;SDS011;68371;42.630;23.192;2023-09-07T09:34:03;12.60;;;5.38;;
64601;SDS011;68371;42.630;23.192;2023-09-07T09:36:32;7.82;;;4.78;;
64601;SDS011;68371;42.630;23.192;2023-09-07T09:39:00;7.93;;;5.13;;
64601;SDS011;68371;42.630;23.192;2023-09-07T09:41:28;11.35;;;5.10;;
64601;SDS011;68371;42.630;23.192;2023-09-07T09:44:00;7.75;;;4.90;;
64601;SDS011;68371;42.630;23.192;2023-09-07T09:46:29;9.82;;;5.40;;
64601;SDS011;68371;42.630;23.192;2023-09-07T09:48:58;6.00;;;4.80;;
64601;SDS011;68371;42.630;23.192;2023-09-07T09:51:25;13.80;;;4.95;;
64601;SDS011;68371;42.630;23.192;2023-09-07T09:53:54;8.20;;;5.85;;
64601;SDS011;68371;42.630;23.192;2023-09-07T09:56:22;7.00;;;4.78;;
64601;SDS011;68371;42.630;23.192;2023-09-07T09:58:50;6.03;;;4.40;;
64601;SDS011;68371;42.630;23.192;2023-09-07T10:01:19;7.20;;;4.57;;
64601;SDS011;68371;42.630;23.192;2023-09-07T10:03:48;11.07;;;4.67;;
64601;SDS011;68371;42.630;23.192;2023-09-07T10:06:22;9.02;;;5.03;;
64601;SDS011;68371;42.630;23.192;2023-09-07T10:08:53;10.32;;;4.32;;
64601;SDS011;68371;42.630;23.192;2023-09-07T10:11:26;7.90;;;4.10;;
64601;SDS011;68371;42.630;23.192;2023-09-07T10:13:56;9.35;;;4.22;;
64601;SDS011;68371;42.630;23.192;2023-09-07T10:16:25;7.30;;;4.40;;
64601;SDS011;68371;42.630;23.192;2023-09-07T10:18:52;7.05;;;4.55;;
64601;SDS011;68371;42.630;23.192;2023-09-07T10:21:23;6.15;;;4.13;;
64601;SDS011;68371;42.630;23.192;2023-09-07T10:23:51;6.63;;;4.22;;
64601;SDS011;68371;42.630;23.192;2023-09-07T10:26:19;10.95;;;4.72;;
64601;SDS011;68371;42.630;23.192;2023-09-07T10:28:47;8.50;;;4.90;;
64601;SDS011;68371;42.630;23.192;2023-09-07T10:31:26;9.57;;;4.95;;
64601;SDS011;68371;42.630;23.192;2023-09-07T10:33:55;7.15;;;4.55;;
64601;SDS011;68371;42.630;23.192;2023-09-07T10:36:23;13.32;;;4.97;;
64601;SDS011;68371;42.630;23.192;2023-09-07T10:38:52;9.60;;;4.55;;
64601;SDS011;68371;42.630;23.192;2023-09-07T10:41:21;7.82;;;4.38;;
64601;SDS011;68371;42.630;23.192;2023-09-07T10:43:49;11.07;;;4.50;;
64601;SDS011;68371;42.630;23.192;2023-09-07T10:46:18;7.20;;;4.18;;
64601;SDS011;68371;42.630;23.192;2023-09-07T10:48:49;11.98;;;4.70;;
64601;SDS011;68371;42.630;23.192;2023-09-07T10:51:17;10.02;;;4.45;;
64601;SDS011;68371;42.630;23.192;2023-09-07T10:53:44;11.88;;;4.50;;
64601;SDS011;68371;42.630;23.192;2023-09-07T10:56:11;12.40;;;4.50;;
64601;SDS011;68371;42.630;23.192;2023-09-07T10:58:38;7.35;;;4.50;;
64601;SDS011;68371;42.630;23.192;2023-09-07T11:01:07;10.98;;;4.35;;
64601;SDS011;68371;42.630;23.192;2023-09-07T11:03:35;6.70;;;4.15;;
64601;SDS011;68371;42.630;23.192;2023-09-07T11:06:05;12.43;;;4.78;;
64601;SDS011;68371;42.630;23.192;2023-09-07T11:08:35;8.40;;;4.28;;
64601;SDS011;68371;42.630;23.192;2023-09-07T11:11:02;6.40;;;4.45;;
64601;SDS011;68371;42.630;23.192;2023-09-07T11:13:29;9.32;;;4.63;;
64601;SDS011;68371;42.630;23.192;2023-09-07T11:15:56;12.02;;;4.65;;
64601;SDS011;68371;42.630;23.192;2023-09-07T11:18:24;5.63;;;4.60;;
64601;SDS011;68371;42.630;23.192;2023-09-07T11:20:52;9.70;;;4.72;;
64601;SDS011;68371;42.630;23.192;2023-09-07T11:23:21;7.75;;;4.93;;
64601;SDS011;68371;42.630;23.192;2023-09-07T11:25:49;8.27;;;5.07;;
64601;SDS011;68371;42.630;23.192;2023-09-07T11:28:17;7.20;;;4.78;;
64601;SDS011;68371;42.630;23.192;2023-09-07T11:30:48;11.00;;;4.70;;
64601;SDS011;68371;42.630;23.192;2023-09-07T11:33:16;6.60;;;4.97;;
64601;SDS011;68371;42.630;23.192;2023-09-07T11:35:43;11.75;;;5.63;;
64601;SDS011;68371;42.630;23.192;2023-09-07T11:38:12;8.60;;;4.72;;
64601;SDS011;68371;42.630;23.192;2023-09-07T11:40:41;7.15;;;4.68;;
64601;SDS011;68371;42.630;23.192;2023-09-07T11:43:09;13.00;;;5.00;;
64601;SDS011;68371;42.630;23.192;2023-09-07T11:45:36;7.63;;;4.15;;
64601;SDS011;68371;42.630;23.192;2023-09-07T11:48:03;5.97;;;4.43;;
64601;SDS011;68371;42.630;23.192;2023-09-07T11:50:30;8.15;;;4.50;;
64601;SDS011;68371;42.630;23.192;2023-09-07T11:52:57;9.75;;;4.90;;
64601;SDS011;68371;42.630;23.192;2023-09-07T11:55:24;10.50;;;4.95;;
64601;SDS011;68371;42.630;23.192;2023-09-07T11:57:52;7.00;;;4.10;;
64601;SDS011;68371;42.630;23.192;2023-09-07T12:00:20;18.75;;;4.82;;
64601;SDS011;68371;42.630;23.192;2023-09-07T12:02:47;7.43;;;4.40;;
64601;SDS011;68371;42.630;23.192;2023-09-07T12:05:14;8.90;;;4.38;;
64601;SDS011;68371;42.630;23.192;2023-09-07T12:07:41;7.72;;;4.30;;
64601;SDS011;68371;42.630;23.192;2023-09-07T12:10:08;8.13;;;4.28;;
64601;SDS011;68371;42.630;23.192;2023-09-07T12:12:36;6.97;;;4.22;;
64601;SDS011;68371;42.630;23.192;2023-09-07T12:15:05;5.65;;;4.22;;
64601;SDS011;68371;42.630;23.192;2023-09-07T12:17:32;8.25;;;4.35;;
64601;SDS011;68371;42.630;23.192;2023-09-07T12:19:59;12.05;;;4.43;;
64601;SDS011;68371;42.630;23.192;2023-09-07T12:22:26;5.65;;;3.90;;
64601;SDS011;68371;42.630;23.192;2023-09-07T12:24:53;6.20;;;3.90;;
64601;SDS011;68371;42.630;23.192;2023-09-07T12:27:19;8.73;;;4.10;;
64601;SDS011;68371;42.630;23.192;2023-09-07T12:29:46;9.55;;;3.92;;
64601;SDS011;68371;42.630;23.192;2023-09-07T12:32:15;6.40;;;3.95;;
64601;SDS011;68371;42.630;23.192;2023-09-07T12:34:41;10.40;;;4.15;;
64601;SDS011;68371;42.630;23.192;2023-09-07T12:37:08;8.23;;;5.63;;
64601;SDS011;68371;42.630;23.192;2023-09-07T12:39:35;6.95;;;3.75;;
64601;SDS011;68371;42.630;23.192;2023-09-07T12:42:02;9.55;;;4.20;;
64601;SDS011;68371;42.630;23.192;2023-09-07T12:44:29;6.15;;;4.07;;
64601;SDS011;68371;42.630;23.192;2023-09-07T12:46:58;6.43;;;4.65;;
64601;SDS011;68371;42.630;23.192;2023-09-07T12:49:26;7.53;;;4.18;;
64601;SDS011;68371;42.630;23.192;2023-09-07T12:51:53;7.38;;;3.95;;
64601;SDS011;68371;42.630;23.192;2023-09-07T12:54:20;6.53;;;3.97;;
64601;SDS011;68371;42.630;23.192;2023-09-07T12:56:46;6.88;;;3.85;;
64601;SDS011;68371;42.630;23.192;2023-09-07T12:59:13;11.30;;;4.47;;
64601;SDS011;68371;42.630;23.192;2023-09-07T13:01:40;10.07;;;3.80;;
64601;SDS011;68371;42.630;23.192;2023-09-07T13:04:07;6.90;;;3.83;;
64601;SDS011;68371;42.630;23.192;2023-09-07T13:06:35;5.72;;;3.92;;
64601;SDS011;68371;42.630;23.192;2023-09-07T13:09:02;9.88;;;3.95;;
64601;SDS011;68371;42.630;23.192;2023-09-07T13:11:29;5.63;;;3.80;;
64601;SDS011;68371;42.630;23.192;2023-09-07T13:13:56;7.25;;;4.20;;
64601;SDS011;68371;42.630;23.192;2023-09-07T13:16:23;8.65;;;3.75;;
64601;SDS011;68371;42.630;23.192;2023-09-07T13:18:50;6.20;;;4.18;;
64601;SDS011;68371;42.630;23.192;2023-09-07T13:21:16;9.35;;;3.97;;
64601;SDS011;68371;42.630;23.192;2023-09-07T13:23:44;8.85;;;3.80;;
64601;SDS011;68371;42.630;23.192;2023-09-07T13:26:11;6.93;;;3.95;;
64601;SDS011;68371;42.630;23.192;2023-09-07T13:28:38;6.97;;;4.00;;
64601;SDS011;68371;42.630;23.192;2023-09-07T13:31:06;7.75;;;3.55;;
64601;SDS011;68371;42.630;23.192;2023-09-07T13:33:32;7.10;;;3.67;;
64601;SDS011;68371;42.630;23.192;2023-09-07T13:35:59;11.52;;;3.97;;
64601;SDS011;68371;42.630;23.192;2023-09-07T13:38:27;11.13;;;3.92;;
64601;SDS011;68371;42.630;23.192;2023-09-07T13:40:55;9.95;;;3.80;;
64601;SDS011;68371;42.630;23.192;2023-09-07T13:43:22;6.93;;;3.67;;
64601;SDS011;68371;42.630;23.192;2023-09-07T13:45:48;6.32;;;3.67;;
64601;SDS011;68371;42.630;23.192;2023-09-07T13:48:15;7.90;;;3.83;;
64601;SDS011;68371;42.630;23.192;2023-09-07T13:50:42;6.68;;;4.00;;
64601;SDS011;68371;42.630;23.192;2023-09-07T13:53:09;8.43;;;3.72;;
64601;SDS011;68371;42.630;23.192;2023-09-07T13:55:36;12.85;;;4.13;;
64601;SDS011;68371;42.630;23.192;2023-09-07T13:58:06;5.90;;;3.50;;
64601;SDS011;68371;42.630;23.192;2023-09-07T14:00:33;6.05;;;3.90;;
64601;SDS011;68371;42.630;23.192;2023-09-07T14:02:59;5.60;;;3.88;;
64601;SDS011;68371;42.630;23.192;2023-09-07T14:05:26;7.28;;;3.70;;
64601;SDS011;68371;42.630;23.192;2023-09-07T14:07:53;8.40;;;3.88;;
64601;SDS011;68371;42.630;23.192;2023-09-07T14:10:19;5.18;;;3.83;;
64601;SDS011;68371;42.630;23.192;2023-09-07T14:12:46;10.02;;;3.92;;
64601;SDS011;68371;42.630;23.192;2023-09-07T14:15:15;7.10;;;3.67;;
64601;SDS011;68371;42.630;23.192;2023-09-07T14:17:42;15.35;;;3.88;;
64601;SDS011;68371;42.630;23.192;2023-09-07T14:20:09;8.13;;;3.63;;
64601;SDS011;68371;42.630;23.192;2023-09-07T14:22:36;11.32;;;4.30;;
64601;SDS011;68371;42.630;23.192;2023-09-07T14:25:03;6.65;;;3.88;;
64601;SDS011;68371;42.630;23.192;2023-09-07T14:27:32;7.45;;;4.30;;
64601;SDS011;68371;42.630;23.192;2023-09-07T14:30:00;6.03;;;3.40;;
64601;SDS011;68371;42.630;23.192;2023-09-07T14:32:29;7.55;;;3.70;;
64601;SDS011;68371;42.630;23.192;2023-09-07T14:34:55;7.28;;;4.03;;
64601;SDS011;68371;42.630;23.192;2023-09-07T14:37:22;7.25;;;4.10;;
64601;SDS011;68371;42.630;23.192;2023-09-07T14:39:49;5.95;;;3.75;;
64601;SDS011;68371;42.630;23.192;2023-09-07T14:42:16;7.00;;;3.70;;
64601;SDS011;68371;42.630;23.192;2023-09-07T14:44:44;6.68;;;3.78;;
64601;SDS011;68371;42.630;23.192;2023-09-07T14:47:12;9.10;;;3.78;;
64601;SDS011;68371;42.630;23.192;2023-09-07T14:49:40;6.38;;;4.00;;
64601;SDS011;68371;42.630;23.192;2023-09-07T14:52:07;6.22;;;3.88;;
64601;SDS011;68371;42.630;23.192;2023-09-07T14:54:33;10.82;;;4.18;;
64601;SDS011;68371;42.630;23.192;2023-09-07T14:57:01;8.65;;;3.80;;
64601;SDS011;68371;42.630;23.192;2023-09-07T14:59:28;11.75;;;3.80;;
64601;SDS011;68371;42.630;23.192;2023-09-07T15:01:55;7.10;;;3.53;;
64601;SDS011;68371;42.630;23.192;2023-09-07T15:04:22;11.70;;;3.85;;
64601;SDS011;68371;42.630;23.192;2023-09-07T15:06:50;5.82;;;3.85;;
64601;SDS011;68371;42.630;23.192;2023-09-07T15:09:16;9.82;;;4.47;;
64601;SDS011;68371;42.630;23.192;2023-09-07T15:11:43;6.32;;;3.53;;
64601;SDS011;68371;42.630;23.192;2023-09-07T15:14:10;7.45;;;3.85;;
64601;SDS011;68371;42.630;23.192;2023-09-07T15:16:36;12.63;;;3.63;;
64601;SDS011;68371;42.630;23.192;2023-09-07T15:19:03;7.70;;;3.70;;
64601;SDS011;68371;42.630;23.192;2023-09-07T15:21:30;7.35;;;3.78;;
64601;SDS011;68371;42.630;23.192;2023-09-07T15:23:58;6.95;;;3.72;;
64601;SDS011;68371;42.630;23.192;2023-09-07T15:26:25;5.05;;;3.80;;
64601;SDS011;68371;42.630;23.192;2023-09-07T15:28:52;9.00;;;3.88;;
64601;SDS011;68371;42.630;23.192;2023-09-07T15:31:18;10.57;;;4.03;;
64601;SDS011;68371;42.630;23.192;2023-09-07T15:33:45;7.20;;;3.60;;
64601;SDS011;68371;42.630;23.192;2023-09-07T15:36:12;7.78;;;3.70;;
64601;SDS011;68371;42.630;23.192;2023-09-07T15:38:40;4.55;;;3.78;;
64601;SDS011;68371;42.630;23.192;2023-09-07T15:41:09;5.13;;;3.53;;
64601;SDS011;68371;42.630;23.192;2023-09-07T15:43:36;10.48;;;4.10;;
64601;SDS011;68371;42.630;23.192;2023-09-07T15:46:03;6.50;;;3.83;;
64601;SDS011;68371;42.630;23.192;2023-09-07T15:48:30;6.45;;;3.70;;
64601;SDS011;68371;42.630;23.192;2023-09-07T15:50:57;7.50;;;4.25;;
64601;SDS011;68371;42.630;23.192;2023-09-07T15:53:24;5.97;;;3.88;;
64601;SDS011;68371;42.630;23.192;2023-09-07T15:55:50;11.13;;;3.67;;
64601;SDS011;68371;42.630;23.192;2023-09-07T15:58:19;7.97;;;3.67;;
64601;SDS011;68371;42.630;23.192;2023-09-07T16:00:46;6.97;;;3.90;;
64601;SDS011;68371;42.630;23.192;2023-09-07T16:03:13;8.02;;;3.63;;
64601;SDS011;68371;42.630;23.192;2023-09-07T16:05:40;8.35;;;3.72;;
64601;SDS011;68371;42.630;23.192;2023-09-07T16:08:07;7.07;;;3.67;;
64601;SDS011;68371;42.630;23.192;2023-09-07T16:10:34;7.15;;;3.55;;
64601;SDS011;68371;42.630;23.192;2023-09-07T16:13:01;8.70;;;3.80;;
64601;SDS011;68371;42.630;23.192;2023-09-07T16:15:30;6.63;;;3.83;;
64601;SDS011;68371;42.630;23.192;2023-09-07T16:17:56;7.78;;;3.78;;
64601;SDS011;68371;42.630;23.192;2023-09-07T16:20:23;4.70;;;3.60;;
64601;SDS011;68371;42.630;23.192;2023-09-07T16:22:50;5.10;;;3.95;;
64601;SDS011;68371;42.630;23.192;2023-09-07T16:25:17;7.80;;;3.78;;
64601;SDS011;68371;42.630;23.192;2023-09-07T16:27:44;8.52;;;3.67;;
64601;SDS011;68371;42.630;23.192;2023-09-07T16:30:12;22.02;;;4.70;;
64601;SDS011;68371;42.630;23.192;2023-09-07T16:32:40;7.40;;;4.18;;
64601;SDS011;68371;42.630;23.192;2023-09-07T16:35:08;8.15;;;4.45;;
64601;SDS011;68371;42.630;23.192;2023-09-07T16:37:35;6.03;;;4.20;;
64601;SDS011;68371;42.630;23.192;2023-09-07T16:40:04;9.45;;;4.50;;
64601;SDS011;68371;42.630;23.192;2023-09-07T16:42:31;19.02;;;5.80;;
64601;SDS011;68371;42.630;23.192;2023-09-07T16:44:58;11.90;;;5.22;;
64601;SDS011;68371;42.630;23.192;2023-09-07T16:47:25;8.38;;;5.00;;
64601;SDS011;68371;42.630;23.192;2023-09-07T16:49:53;8.85;;;5.60;;
64601;SDS011;68371;42.630;23.192;2023-09-07T16:52:20;11.45;;;5.70;;
64601;SDS011;68371;42.630;23.192;2023-09-07T16:54:46;14.40;;;5.80;;
64601;SDS011;68371;42.630;23.192;2023-09-07T16:57:13;9.05;;;4.65;;
64601;SDS011;68371;42.630;23.192;2023-09-07T16:59:40;9.27;;;4.45;;
64601;SDS011;68371;42.630;23.192;2023-09-07T17:02:07;12.55;;;4.97;;
64601;SDS011;68371;42.630;23.192;2023-09-07T17:04:34;12.63;;;4.38;;
64601;SDS011;68371;42.630;23.192;2023-09-07T17:07:04;9.15;;;4.40;;
64601;SDS011;68371;42.630;23.192;2023-09-07T17:09:31;9.18;;;4.40;;
64601;SDS011;68371;42.630;23.192;2023-09-07T17:11:58;6.45;;;4.50;;
64601;SDS011;68371;42.630;23.192;2023-09-07T17:14:25;10.88;;;4.40;;
64601;SDS011;68371;42.630;23.192;2023-09-07T17:16:52;10.77;;;4.70;;
64601;SDS011;68371;42.630;23.192;2023-09-07T17:19:18;12.45;;;5.07;;
64601;SDS011;68371;42.630;23.192;2023-09-07T17:21:45;9.07;;;4.60;;
64601;SDS011;68371;42.630;23.192;2023-09-07T17:24:14;10.75;;;5.07;;
64601;SDS011;68371;42.630;23.192;2023-09-07T17:26:40;9.48;;;4.82;;
64601;SDS011;68371;42.630;23.192;2023-09-07T17:29:08;9.50;;;4.90;;